KFRR/FRR METAR and TAF weather

Enter ICAO airport designator
Station Type Date Time Source
KFRR METAR 2020/07/12 18:55 UTC NOAA

KFRR 121855Z AUTO 20005KT 10SM BKN060 BKN080 OVC095 26/18 A2978 RMK AO1


Station Type Date Time Source
KFRR Decoded METAR 2020/07/12 18:55 UTC NOAA

Station name not available
Jul 12, 2020 - 02:55 PM EDT / 2020.07.12 1855 UTC
Wind: from the SSW (200 degrees) at 6 MPH (5 KT):0
Visibility: 10 mile(s):0
Sky conditions: overcast
Temperature: 78 F (26 C)
Dew Point: 64 F (18 C)
Relative Humidity: 61%
Pressure (altimeter): 29.78 in. Hg (1008 hPa)
ob: KFRR 121855Z AUTO 20005KT 10SM BKN060 BKN080 OVC095 26/18 A2978 RMK AO1
cycle: 19

Station Type Date Time Source
KFRR TAF UTC NOAA

Error!

Example: see airport list